createdAt,value
2019-03-30T00:01:00.613Z,93.00
2019-03-30T00:03:27.310Z,92.70
2019-03-30T00:05:54.013Z,92.20
2019-03-30T00:08:20.773Z,91.50
2019-03-30T00:10:47.481Z,91.10
2019-03-30T00:13:14.203Z,91.20
2019-03-30T00:15:40.860Z,91.10
2019-03-30T00:18:07.516Z,91.00
2019-03-30T00:20:34.140Z,91.00
2019-03-30T00:23:00.821Z,91.00
2019-03-30T00:25:27.440Z,91.80
2019-03-30T00:27:54.207Z,92.50
2019-03-30T00:30:20.960Z,91.70
2019-03-30T00:32:47.615Z,92.70
2019-03-30T00:35:14.272Z,93.70
2019-03-30T00:37:41.013Z,93.10
2019-03-30T00:40:08.012Z,94.10
2019-03-30T00:42:34.667Z,93.00
2019-03-30T00:45:01.338Z,92.80
2019-03-30T00:47:27.995Z,93.20
2019-03-30T00:49:54.785Z,93.50
2019-03-30T00:52:21.441Z,94.00
2019-03-30T00:54:48.144Z,93.80
2019-03-30T00:57:14.813Z,94.20
2019-03-30T00:59:41.466Z,94.00
2019-03-30T01:02:08.228Z,93.40
2019-03-30T01:04:34.879Z,93.10
2019-03-30T01:07:01.550Z,92.60
2019-03-30T01:09:28.282Z,92.70
2019-03-30T01:11:54.996Z,92.20
2019-03-30T01:14:21.640Z,92.50
2019-03-30T01:16:48.439Z,92.40
2019-03-30T01:19:15.097Z,92.80
2019-03-30T01:21:41.759Z,92.70
2019-03-30T01:24:08.560Z,93.40
2019-03-30T01:26:35.213Z,92.40
2019-03-30T01:29:02.036Z,93.10
2019-03-30T01:31:28.672Z,93.20
2019-03-30T01:33:55.364Z,94.50
2019-03-30T01:36:41.794Z,95.00
2019-03-30T01:39:08.696Z,94.30
2019-03-30T01:41:35.436Z,94.50
2019-03-30T01:44:02.220Z,93.70
2019-03-30T01:46:29.013Z,93.30
2019-03-30T01:48:55.760Z,93.10
2019-03-30T01:51:22.559Z,94.90
2019-03-30T01:53:49.337Z,93.70
2019-03-30T01:56:16.122Z,93.00
2019-03-30T01:58:42.743Z,92.50
2019-03-30T02:01:09.425Z,93.70
2019-03-30T02:03:36.055Z,93.50
2019-03-30T02:08:44.325Z,94.10
2019-03-30T02:11:10.976Z,93.30
2019-03-30T02:13:37.718Z,93.30
2019-03-30T02:16:04.457Z,93.30
2019-03-30T02:18:31.154Z,93.10
2019-03-30T02:20:57.892Z,92.90
2019-03-30T02:23:24.672Z,92.70
2019-03-30T02:25:51.405Z,92.60
2019-03-30T02:28:18.181Z,92.20
2019-03-30T02:30:53.532Z,92.30
2019-03-30T02:33:20.196Z,92.30
2019-03-30T02:35:46.971Z,93.00
2019-03-30T02:38:13.641Z,92.70
2019-03-30T02:40:40.305Z,92.60
2019-03-30T02:43:06.939Z,92.50
2019-03-30T02:45:33.793Z,93.30
2019-03-30T02:48:00.450Z,93.10
2019-03-30T02:50:27.266Z,93.70
2019-03-30T02:52:53.996Z,93.10
2019-03-30T02:55:20.653Z,92.80
2019-03-30T02:57:47.340Z,92.60
2019-03-30T03:00:15.669Z,93.00
2019-03-30T03:02:42.374Z,93.00
2019-03-30T03:05:09.207Z,93.30
2019-03-30T03:07:35.872Z,93.60
2019-03-30T03:10:04.845Z,93.90
2019-03-30T03:12:31.547Z,93.10
2019-03-30T03:14:58.281Z,94.70
2019-03-30T03:17:25.027Z,93.60
2019-03-30T03:19:51.787Z,94.10
2019-03-30T03:22:18.542Z,93.20
2019-03-30T03:24:45.303Z,92.90
2019-03-30T03:27:12.107Z,93.20
2019-03-30T03:29:43.146Z,93.10
2019-03-30T03:32:07.388Z,93.50
2019-03-30T03:34:34.073Z,93.70
2019-03-30T03:37:00.830Z,93.30
2019-03-30T03:39:27.575Z,93.00
2019-03-30T03:41:54.267Z,93.10
2019-03-30T03:44:20.881Z,94.30
2019-03-30T03:46:47.545Z,94.20
2019-03-30T03:49:14.193Z,95.80
2019-03-30T03:51:41.052Z,94.80
2019-03-30T03:54:07.825Z,94.90
2019-03-30T03:56:36.758Z,94.20
2019-03-30T03:59:05.229Z,93.80
2019-03-30T04:01:33.906Z,93.30
2019-03-30T04:04:02.076Z,93.40
2019-03-30T04:06:31.226Z,93.30
2019-03-30T04:09:00.195Z,93.50
2019-03-30T04:11:29.841Z,93.80
2019-03-30T04:13:58.782Z,94.40
2019-03-30T04:16:25.393Z,94.60
2019-03-30T04:18:52.110Z,93.90
2019-03-30T04:21:18.845Z,94.70
2019-03-30T04:23:45.617Z,95.20
2019-03-30T04:26:12.246Z,94.90
2019-03-30T04:28:38.897Z,94.50
2019-03-30T04:31:05.568Z,94.30
2019-03-30T04:33:32.217Z,94.30
2019-03-30T04:35:58.991Z,94.10
2019-03-30T04:38:25.744Z,94.30
2019-03-30T04:40:52.375Z,94.10
2019-03-30T04:43:19.051Z,94.10
2019-03-30T04:45:45.671Z,93.70
2019-03-30T04:48:12.441Z,93.70
2019-03-30T04:50:41.032Z,94.30
2019-03-30T04:53:07.788Z,93.80
2019-03-30T04:55:34.476Z,93.50
2019-03-30T04:58:01.160Z,93.30
2019-03-30T05:00:27.803Z,93.50
2019-03-30T05:02:54.463Z,94.10
2019-03-30T05:05:21.101Z,93.70
2019-03-30T05:07:47.768Z,93.00
2019-03-30T05:10:14.454Z,93.30
2019-03-30T05:12:41.150Z,93.60
2019-03-30T05:15:07.900Z,94.10
2019-03-30T05:17:46.830Z,96.00
2019-03-30T05:20:05.533Z,95.20
2019-03-30T05:22:32.296Z,94.90
2019-03-30T05:24:59.032Z,93.80
2019-03-30T05:27:25.839Z,93.40
2019-03-30T05:29:52.474Z,93.30
2019-03-30T05:32:19.249Z,94.30
2019-03-30T05:34:45.872Z,93.80
2019-03-30T05:37:12.536Z,93.30
2019-03-30T05:39:39.206Z,93.00
2019-03-30T05:42:05.848Z,93.50
2019-03-30T05:44:32.523Z,93.80
2019-03-30T05:46:59.152Z,95.10
2019-03-30T05:49:25.824Z,95.20
2019-03-30T05:51:52.481Z,94.10
2019-03-30T05:54:19.150Z,93.90
2019-03-30T05:56:45.911Z,95.20
2019-03-30T05:59:12.576Z,96.30
2019-03-30T06:01:39.218Z,96.40
2019-03-30T06:04:05.919Z,96.00
2019-03-30T06:06:32.610Z,97.20
2019-03-30T06:08:59.357Z,95.80
2019-03-30T06:11:26.021Z,96.70
2019-03-30T06:13:52.677Z,96.50
2019-03-30T06:16:19.355Z,96.20
2019-03-30T06:18:45.989Z,94.80
2019-03-30T06:21:12.665Z,95.20
2019-03-30T06:23:39.401Z,95.40
2019-03-30T06:26:06.406Z,96.50
2019-03-30T06:28:33.184Z,96.60
2019-03-30T06:30:59.882Z,96.70
2019-03-30T06:33:26.618Z,96.30
2019-03-30T06:35:53.255Z,94.80
2019-03-30T06:38:20.072Z,95.80
2019-03-30T06:40:46.705Z,95.40
2019-03-30T06:43:13.661Z,95.90
2019-03-30T06:45:40.487Z,96.00
2019-03-30T06:48:07.130Z,95.00
2019-03-30T06:50:33.778Z,95.60
2019-03-30T06:53:00.432Z,95.40
2019-03-30T06:55:27.106Z,95.80
2019-03-30T06:57:53.759Z,95.70
2019-03-30T07:00:32.147Z,96.00
2019-03-30T07:03:01.597Z,95.60
2019-03-30T07:05:29.233Z,94.90
2019-03-30T07:07:56.212Z,95.60
2019-03-30T07:10:22.990Z,95.10
2019-03-30T07:12:51.360Z,95.50
2019-03-30T07:15:18.599Z,95.40
2019-03-30T07:17:45.636Z,95.20
2019-03-30T07:20:21.641Z,95.20
2019-03-30T07:22:51.191Z,94.80
2019-03-30T07:25:17.227Z,94.80
2019-03-30T07:27:44.194Z,94.00
2019-03-30T07:30:11.044Z,93.90
2019-03-30T07:32:37.797Z,93.80
2019-03-30T07:35:05.593Z,94.30
2019-03-30T07:37:32.471Z,94.20
2019-03-30T07:39:59.416Z,93.20
2019-03-30T07:42:26.219Z,93.10
2019-03-30T07:44:52.838Z,92.70
2019-03-30T07:47:19.872Z,92.90
2019-03-30T07:49:46.801Z,91.80
2019-03-30T07:52:13.620Z,91.50
2019-03-30T07:54:40.414Z,91.40
2019-03-30T07:57:16.776Z,91.50
2019-03-30T07:59:36.831Z,91.30
2019-03-30T08:02:06.204Z,90.70
2019-03-30T08:04:33.114Z,90.90
2019-03-30T08:07:00.651Z,90.80
2019-03-30T08:09:27.913Z,90.70
2019-03-30T08:11:54.680Z,90.00
2019-03-30T08:14:22.421Z,89.80
2019-03-30T08:16:49.689Z,89.90
2019-03-30T08:19:17.029Z,88.80
2019-03-30T08:21:43.975Z,89.20
2019-03-30T08:24:15.038Z,89.20
2019-03-30T08:26:44.410Z,88.00
2019-03-30T08:29:11.844Z,87.20
2019-03-30T08:31:38.896Z,86.90
2019-03-30T08:34:06.015Z,85.40
2019-03-30T08:36:32.995Z,85.70
2019-03-30T08:38:59.974Z,83.90
2019-03-30T08:41:27.325Z,83.80
2019-03-30T08:43:53.970Z,82.90
2019-03-30T08:46:21.756Z,82.50
2019-03-30T08:48:49.482Z,82.40
2019-03-30T08:51:20.820Z,82.00
2019-03-30T08:53:54.476Z,81.60
2019-03-30T08:56:16.359Z,81.30
2019-03-30T08:58:43.110Z,81.60
2019-03-30T09:01:09.933Z,82.30
2019-03-30T09:03:36.623Z,81.20
2019-03-30T09:06:03.372Z,80.90
2019-03-30T09:08:30.052Z,79.90
2019-03-30T09:10:56.725Z,79.50
2019-03-30T09:13:23.499Z,80.00
2019-03-30T09:15:50.141Z,80.90
2019-03-30T09:18:16.915Z,79.80
2019-03-30T09:20:43.661Z,80.30
2019-03-30T09:23:10.349Z,79.50
2019-03-30T09:25:36.997Z,79.60
2019-03-30T09:28:03.661Z,80.00
2019-03-30T09:30:30.317Z,79.10
2019-03-30T09:32:57.055Z,78.40
2019-03-30T09:35:23.754Z,77.90
2019-03-30T09:37:50.469Z,77.50
2019-03-30T09:40:17.237Z,77.50
2019-03-30T09:42:43.896Z,76.90
2019-03-30T09:45:10.761Z,76.60
2019-03-30T09:47:37.527Z,76.10
2019-03-30T09:50:07.731Z,77.20
2019-03-30T09:52:34.494Z,76.30
2019-03-30T09:55:01.238Z,77.10
2019-03-30T09:57:27.899Z,75.60
2019-03-30T09:59:54.708Z,75.60
2019-03-30T10:02:21.345Z,75.50
2019-03-30T10:04:48.016Z,73.50
2019-03-30T10:07:14.794Z,73.70
2019-03-30T10:09:41.529Z,72.00
2019-03-30T10:12:08.312Z,72.00
2019-03-30T10:14:35.062Z,72.70
2019-03-30T10:17:01.847Z,71.10
2019-03-30T10:19:28.621Z,71.60
2019-03-30T10:21:55.493Z,70.00
2019-03-30T10:24:22.277Z,70.40
2019-03-30T10:26:49.013Z,70.40
2019-03-30T10:29:15.660Z,70.20
2019-03-30T10:31:42.473Z,69.90
2019-03-30T10:34:09.201Z,69.50
2019-03-30T10:36:36.869Z,69.70
2019-03-30T10:39:05.862Z,69.50
2019-03-30T10:41:32.664Z,69.20
2019-03-30T10:43:59.407Z,68.70
2019-03-30T10:46:26.211Z,67.90
2019-03-30T10:48:52.865Z,68.30
2019-03-30T10:51:19.616Z,69.20
2019-03-30T10:53:46.464Z,68.00
2019-03-30T10:56:13.266Z,68.60
2019-03-30T10:58:40.066Z,67.60
2019-03-30T11:01:06.717Z,67.20
2019-03-30T11:03:33.490Z,66.80
2019-03-30T11:06:00.264Z,66.80
2019-03-30T11:08:27.090Z,66.10
2019-03-30T11:10:53.843Z,65.00
2019-03-30T11:13:20.573Z,65.40
2019-03-30T11:15:47.263Z,65.00
2019-03-30T11:18:13.883Z,64.70
2019-03-30T11:20:40.576Z,65.20
2019-03-30T11:23:07.240Z,64.90
2019-03-30T11:25:33.960Z,64.10
2019-03-30T11:28:00.858Z,64.70
2019-03-30T11:30:27.597Z,62.50
2019-03-30T11:32:54.259Z,63.20
2019-03-30T11:35:21.043Z,62.40
2019-03-30T11:37:47.812Z,63.30
2019-03-30T11:40:14.537Z,62.70
2019-03-30T11:42:42.278Z,61.20
2019-03-30T11:45:09.073Z,59.30
2019-03-30T11:47:35.816Z,59.60
2019-03-30T11:50:05.293Z,58.80
2019-03-30T11:52:32.082Z,57.90
2019-03-30T11:54:58.799Z,57.80
2019-03-30T11:57:25.604Z,57.60
2019-03-30T11:59:52.224Z,58.20
2019-03-30T12:02:27.788Z,56.80
2019-03-30T12:04:47.653Z,56.60
2019-03-30T12:07:14.520Z,57.30
2019-03-30T12:09:41.323Z,57.40
2019-03-30T12:12:08.153Z,57.40
2019-03-30T12:14:34.842Z,57.30
2019-03-30T12:17:01.576Z,57.10
2019-03-30T12:19:28.373Z,55.90
2019-03-30T12:21:55.042Z,57.30
2019-03-30T12:24:21.926Z,57.10
2019-03-30T12:26:48.707Z,56.30
2019-03-30T12:29:15.398Z,56.90
2019-03-30T12:31:42.151Z,56.90
2019-03-30T12:34:08.938Z,55.40
2019-03-30T12:36:35.712Z,55.60
2019-03-30T12:39:04.182Z,56.70
2019-03-30T12:41:30.939Z,55.80
2019-03-30T12:43:57.650Z,57.60
2019-03-30T12:46:24.282Z,56.80
2019-03-30T12:48:50.934Z,55.90
2019-03-30T12:51:17.762Z,55.90
2019-03-30T12:53:50.413Z,56.30
2019-03-30T12:56:13.080Z,55.90
2019-03-30T12:58:39.874Z,55.70
2019-03-30T13:01:06.572Z,54.90
2019-03-30T13:03:33.256Z,50.60
2019-03-30T13:06:00.037Z,47.80
2019-03-30T13:08:26.814Z,47.30
2019-03-30T13:10:53.656Z,47.90
2019-03-30T13:13:20.433Z,45.90
2019-03-30T13:15:47.092Z,45.50
2019-03-30T13:18:13.980Z,45.70
2019-03-30T13:20:40.608Z,47.80
2019-03-30T13:23:07.406Z,47.10
2019-03-30T13:25:34.085Z,48.20
2019-03-30T13:28:00.865Z,48.20
2019-03-30T13:30:27.636Z,46.80
2019-03-30T13:32:54.293Z,46.30
2019-03-30T13:35:21.005Z,47.50
2019-03-30T13:37:47.663Z,48.00
2019-03-30T13:40:14.476Z,47.90
2019-03-30T13:42:41.233Z,48.80
2019-03-30T13:45:08.130Z,48.70
2019-03-30T13:47:34.790Z,47.90
2019-03-30T13:50:01.662Z,47.90
2019-03-30T13:52:28.421Z,49.00
2019-03-30T13:54:55.226Z,48.40
2019-03-30T13:57:21.880Z,48.00
2019-03-30T13:59:48.675Z,47.50
2019-03-30T14:02:15.329Z,47.30
2019-03-30T14:04:42.107Z,47.80
2019-03-30T14:07:08.757Z,49.00
2019-03-30T14:09:35.580Z,49.70
2019-03-30T14:12:02.423Z,49.80
2019-03-30T14:14:29.128Z,49.40
2019-03-30T14:16:55.958Z,49.90
2019-03-30T14:19:22.759Z,51.40
2019-03-30T14:21:49.540Z,51.00
2019-03-30T14:24:16.317Z,51.30
2019-03-30T14:26:43.092Z,51.50
2019-03-30T14:29:09.831Z,50.90
2019-03-30T14:31:36.631Z,50.20
2019-03-30T14:34:03.314Z,50.90
2019-03-30T14:36:30.005Z,52.20
2019-03-30T14:38:56.758Z,52.30
2019-03-30T14:41:23.649Z,52.10
2019-03-30T14:43:50.356Z,51.40
2019-03-30T14:46:16.990Z,51.10
2019-03-30T14:48:43.706Z,51.50
2019-03-30T14:51:10.344Z,51.80
2019-03-30T14:53:37.128Z,51.30
2019-03-30T14:56:03.872Z,51.90
2019-03-30T14:58:30.681Z,52.60
2019-03-30T15:00:57.308Z,52.70
2019-03-30T15:03:24.005Z,52.60
2019-03-30T15:05:50.640Z,52.40
2019-03-30T15:08:17.327Z,52.80
2019-03-30T15:10:44.107Z,53.10
2019-03-30T15:13:10.945Z,52.40
2019-03-30T15:15:37.612Z,51.60
2019-03-30T15:18:04.355Z,51.50
2019-03-30T15:20:31.076Z,52.10
2019-03-30T15:22:57.835Z,52.00
2019-03-30T15:25:24.557Z,51.70
2019-03-30T15:27:51.221Z,52.00
2019-03-30T15:30:18.015Z,52.30
2019-03-30T15:32:44.770Z,53.20
2019-03-30T15:35:11.504Z,51.70
2019-03-30T15:37:38.308Z,52.80
2019-03-30T15:40:05.679Z,52.60
2019-03-30T15:42:32.476Z,52.70
2019-03-30T15:44:59.728Z,53.00
2019-03-30T15:47:26.529Z,52.30
2019-03-30T15:49:53.237Z,52.60
2019-03-30T15:52:19.976Z,53.00
2019-03-30T15:54:46.635Z,53.50
2019-03-30T15:57:14.210Z,54.20
2019-03-30T15:59:41.357Z,53.50
2019-03-30T16:02:08.196Z,54.00
2019-03-30T16:04:34.840Z,53.80
2019-03-30T16:07:01.616Z,53.60
2019-03-30T16:09:28.358Z,53.20
2019-03-30T16:11:55.102Z,51.80
2019-03-30T16:14:21.804Z,48.20
2019-03-30T16:16:49.644Z,47.10
2019-03-30T16:19:16.320Z,46.30
2019-03-30T16:21:42.976Z,46.70
2019-03-30T16:24:09.936Z,46.30
2019-03-30T16:26:42.166Z,46.70
2019-03-30T16:29:05.112Z,46.60
2019-03-30T16:31:31.802Z,46.90
2019-03-30T16:33:58.583Z,47.30
2019-03-30T16:36:25.313Z,48.00
2019-03-30T16:38:52.121Z,48.00
2019-03-30T16:41:18.959Z,48.20
2019-03-30T16:43:45.603Z,48.20
2019-03-30T16:46:12.398Z,48.70
2019-03-30T16:48:39.083Z,48.90
2019-03-30T16:51:05.909Z,49.80
2019-03-30T16:53:32.605Z,49.30
2019-03-30T16:55:59.414Z,49.80
2019-03-30T16:58:26.177Z,50.50
2019-03-30T17:00:56.923Z,50.40
2019-03-30T17:03:21.566Z,50.90
2019-03-30T17:05:48.411Z,51.40
2019-03-30T17:08:15.099Z,51.50
2019-03-30T17:10:41.915Z,55.00
2019-03-30T17:13:09.926Z,58.00
2019-03-30T17:15:36.700Z,58.40
2019-03-30T17:18:03.577Z,60.10
2019-03-30T17:20:30.246Z,60.60
2019-03-30T17:22:58.858Z,60.80
2019-03-30T17:25:25.383Z,62.90
2019-03-30T17:27:58.660Z,62.30
2019-03-30T17:30:20.725Z,63.30
2019-03-30T17:32:47.475Z,63.50
2019-03-30T17:35:14.145Z,63.70
2019-03-30T17:37:41.159Z,63.70
2019-03-30T17:40:08.511Z,64.00
2019-03-30T17:42:38.550Z,64.40
2019-03-30T17:45:07.258Z,64.60
2019-03-30T17:47:34.082Z,64.80
2019-03-30T17:50:00.860Z,65.20
2019-03-30T17:52:27.579Z,65.80
2019-03-30T17:54:54.342Z,66.20
2019-03-30T17:57:21.003Z,65.80
2019-03-30T17:59:47.657Z,66.30
2019-03-30T18:02:14.544Z,66.20
2019-03-30T18:04:42.114Z,66.60
2019-03-30T18:07:08.860Z,67.00
2019-03-30T18:09:35.611Z,67.10
2019-03-30T18:12:02.436Z,68.40
2019-03-30T18:14:29.968Z,67.50
2019-03-30T18:16:58.720Z,68.00
2019-03-30T18:19:25.489Z,67.90
2019-03-30T18:21:52.152Z,68.20
2019-03-30T18:24:18.930Z,68.40
2019-03-30T18:26:45.603Z,69.70
2019-03-30T18:29:12.273Z,69.90
2019-03-30T18:31:39.622Z,69.80
2019-03-30T18:34:06.339Z,69.90
2019-03-30T18:36:34.396Z,70.10
2019-03-30T18:39:09.491Z,70.00
2019-03-30T18:41:29.548Z,70.10
2019-03-30T18:43:56.348Z,70.30
2019-03-30T18:46:23.175Z,70.00
2019-03-30T18:48:50.058Z,70.50
2019-03-30T18:51:16.869Z,70.60
2019-03-30T18:53:43.941Z,70.00
2019-03-30T18:56:10.755Z,71.00
2019-03-30T18:58:41.803Z,70.60
2019-03-30T19:01:05.912Z,70.70
2019-03-30T19:03:32.597Z,71.60
2019-03-30T19:05:59.308Z,70.80
2019-03-30T19:08:26.081Z,71.50
2019-03-30T19:10:52.822Z,71.20
2019-03-30T19:13:19.521Z,71.20
2019-03-30T19:15:46.350Z,71.40
2019-03-30T19:18:13.079Z,71.50
2019-03-30T19:20:39.856Z,71.60
2019-03-30T19:23:06.555Z,71.70
2019-03-30T19:25:34.296Z,71.90
2019-03-30T19:28:01.027Z,71.90
2019-03-30T19:30:27.783Z,72.60
2019-03-30T19:32:54.560Z,72.50
2019-03-30T19:35:21.309Z,72.20
2019-03-30T19:37:48.084Z,72.10
2019-03-30T19:40:14.930Z,72.30
2019-03-30T19:42:41.885Z,72.30
2019-03-30T19:45:09.463Z,72.80
2019-03-30T19:47:36.185Z,72.90
2019-03-30T19:50:22.724Z,73.30
2019-03-30T19:52:49.552Z,73.80
2019-03-30T19:55:16.221Z,73.80
2019-03-30T19:57:43.012Z,74.20
2019-03-30T20:00:12.101Z,73.60
2019-03-30T20:02:38.968Z,74.20
2019-03-30T20:05:06.316Z,74.40
2019-03-30T20:07:33.488Z,74.30
2019-03-30T20:10:00.483Z,74.70
2019-03-30T20:12:27.349Z,74.50
2019-03-30T20:14:54.256Z,75.80
2019-03-30T20:17:20.900Z,76.00
2019-03-30T20:19:47.764Z,76.70
2019-03-30T20:22:14.400Z,76.40
2019-03-30T20:24:41.201Z,75.90
2019-03-30T20:27:08.387Z,76.20
2019-03-30T20:29:35.010Z,75.70
2019-03-30T20:32:01.826Z,76.20
2019-03-30T20:34:28.589Z,76.90
2019-03-30T20:36:55.337Z,76.40
2019-03-30T20:39:21.993Z,76.20
2019-03-30T20:41:48.887Z,76.10
2019-03-30T20:44:15.544Z,75.70
2019-03-30T20:46:43.815Z,75.70
2019-03-30T20:49:10.717Z,75.30
2019-03-30T20:51:37.487Z,76.70
2019-03-30T20:54:04.232Z,78.20
2019-03-30T20:56:30.923Z,79.00
2019-03-30T20:58:57.644Z,78.90
2019-03-30T21:01:24.259Z,78.30
2019-03-30T21:03:51.525Z,78.70
2019-03-30T21:06:18.298Z,78.90
2019-03-30T21:08:45.010Z,78.90
2019-03-30T21:11:12.232Z,79.00
2019-03-30T21:13:39.063Z,82.80
2019-03-30T21:16:05.851Z,81.00
2019-03-30T21:18:33.093Z,83.70
2019-03-30T21:20:59.803Z,83.50
2019-03-30T21:23:26.566Z,81.30
2019-03-30T21:25:53.241Z,79.70
2019-03-30T21:28:20.325Z,80.60
2019-03-30T21:30:47.186Z,82.70
2019-03-30T21:33:15.114Z,83.70
2019-03-30T21:35:42.293Z,84.60
2019-03-30T21:38:09.373Z,85.60
2019-03-30T21:40:36.960Z,83.70
2019-03-30T21:43:03.652Z,81.60
2019-03-30T21:45:30.332Z,80.60
2019-03-30T21:47:57.045Z,81.70
2019-03-30T21:50:23.804Z,83.00
2019-03-30T21:52:51.164Z,82.90
2019-03-30T21:55:17.987Z,83.00
2019-03-30T21:57:44.784Z,82.00
2019-03-30T22:00:15.164Z,81.20
2019-03-30T22:02:41.868Z,80.10
2019-03-30T22:05:08.584Z,81.20
2019-03-30T22:07:35.850Z,82.40
2019-03-30T22:10:07.498Z,81.50
2019-03-30T22:12:34.252Z,81.80
2019-03-30T22:15:01.085Z,83.40
2019-03-30T22:17:28.956Z,82.50
2019-03-30T22:19:55.768Z,82.60
2019-03-30T22:22:22.456Z,81.90
2019-03-30T22:24:50.510Z,81.40
2019-03-30T22:27:17.796Z,83.60
2019-03-30T22:29:44.738Z,82.60
2019-03-30T22:32:11.518Z,82.70
2019-03-30T22:34:38.241Z,84.20
2019-03-30T22:37:04.866Z,84.50
2019-03-30T22:39:31.672Z,84.00
2019-03-30T22:41:58.431Z,83.30
2019-03-30T22:44:25.135Z,84.50
2019-03-30T22:46:51.892Z,83.30
2019-03-30T22:49:18.690Z,82.50
2019-03-30T22:51:45.528Z,84.50
2019-03-30T22:54:12.212Z,84.40
2019-03-30T22:56:39.104Z,84.40
2019-03-30T22:59:05.854Z,86.80
2019-03-30T23:01:32.619Z,87.10
2019-03-30T23:03:59.352Z,85.50
2019-03-30T23:06:26.076Z,87.10
2019-03-30T23:08:52.852Z,86.00
2019-03-30T23:11:19.576Z,85.00
2019-03-30T23:13:47.181Z,85.50
2019-03-30T23:16:13.961Z,86.10
2019-03-30T23:18:40.704Z,84.70
2019-03-30T23:21:07.503Z,84.90
2019-03-30T23:23:34.263Z,84.50
2019-03-30T23:26:03.153Z,84.50
2019-03-30T23:28:29.782Z,84.60
2019-03-30T23:30:56.569Z,85.70
2019-03-30T23:33:23.260Z,85.50
2019-03-30T23:35:50.249Z,87.60
2019-03-30T23:38:16.983Z,87.00
2019-03-30T23:40:43.744Z,86.60
2019-03-30T23:43:10.845Z,86.20
2019-03-30T23:45:40.226Z,85.60
2019-03-30T23:48:07.007Z,86.80
2019-03-30T23:50:33.640Z,87.70
2019-03-30T23:53:01.266Z,86.40
2019-03-30T23:55:27.929Z,86.00
2019-03-30T23:57:54.642Z,86.40
